createdAt,value
2019-04-20T00:00:05.846Z,99.90
2019-04-20T00:02:53.974Z,99.90
2019-04-20T00:05:41.460Z,99.90
2019-04-20T00:08:33.120Z,99.90
2019-04-20T00:11:27.360Z,99.90
2019-04-20T00:14:07.114Z,99.90
2019-04-20T00:16:46.032Z,99.90
2019-04-20T00:19:36.570Z,99.90
2019-04-20T00:22:15.197Z,99.90
2019-04-20T00:25:19.145Z,99.90
2019-04-20T00:28:22.438Z,99.90
2019-04-20T00:31:04.247Z,99.90
2019-04-20T00:33:40.996Z,99.90
2019-04-20T00:36:10.012Z,99.90
2019-04-20T00:38:42.659Z,99.90
2019-04-20T00:41:29.719Z,99.90
2019-04-20T00:44:24.353Z,99.90
2019-04-20T00:47:21.903Z,99.90
2019-04-20T00:50:13.337Z,99.90
2019-04-20T00:53:00.648Z,99.90
2019-04-20T00:55:38.112Z,99.90
2019-04-20T00:58:31.604Z,99.90
2019-04-20T01:01:37.894Z,99.90
2019-04-20T01:04:25.517Z,99.90
2019-04-20T01:07:28.911Z,99.90
2019-04-20T01:10:10.922Z,99.90
2019-04-20T01:13:06.914Z,99.90
2019-04-20T01:15:54.162Z,99.50
2019-04-20T01:18:24.365Z,99.90
2019-04-20T01:21:13.041Z,99.90
2019-04-20T01:23:53.291Z,99.90
2019-04-20T01:26:31.223Z,99.80
2019-04-20T01:29:24.077Z,99.70
2019-04-20T01:32:08.045Z,99.10
2019-04-20T01:34:47.168Z,98.80
2019-04-20T01:37:33.997Z,99.10
2019-04-20T01:39:55.233Z,98.60
2019-04-20T01:42:40.375Z,98.30
2019-04-20T01:45:34.139Z,98.30
2019-04-20T01:48:23.958Z,97.90
2019-04-20T01:51:14.085Z,98.40
2019-04-20T01:57:38.580Z,98.70
2019-04-20T02:00:40.757Z,98.90
2019-04-20T02:03:48.956Z,99.40
2019-04-20T02:06:43.380Z,99.90
2019-04-20T02:09:28.035Z,99.90
2019-04-20T02:12:23.727Z,99.90
2019-04-20T02:15:03.825Z,99.90
2019-04-20T02:17:46.657Z,99.90
2019-04-20T02:20:44.337Z,99.90
2019-04-20T02:23:17.366Z,99.90
2019-04-20T02:25:48.455Z,99.20
2019-04-20T02:28:58.951Z,99.90
2019-04-20T02:40:35.941Z,99.30
2019-04-20T02:43:28.451Z,98.90
2019-04-20T02:45:49.070Z,98.60
2019-04-20T02:48:31.206Z,98.80
2019-04-20T02:51:20.222Z,98.80
2019-04-20T02:56:51.660Z,98.00
2019-04-20T03:01:50.180Z,96.70
2019-04-20T03:04:28.314Z,97.50
2019-04-20T03:07:15.679Z,96.70
2019-04-20T03:10:03.888Z,97.40
2019-04-20T03:15:46.596Z,97.40
2019-04-20T03:18:28.204Z,98.30
2019-04-20T03:21:12.775Z,97.60
2019-04-20T03:24:03.977Z,97.30
2019-04-20T03:26:38.599Z,97.00
2019-04-20T03:29:42.292Z,97.10
2019-04-20T03:35:12.093Z,97.60
2019-04-20T03:37:52.585Z,97.90
2019-04-20T03:40:29.658Z,98.60
2019-04-20T03:42:55.323Z,97.80
2019-04-20T03:45:45.984Z,97.60
2019-04-20T03:48:35.989Z,98.90
2019-04-20T03:51:26.841Z,98.40
2019-04-20T03:54:22.218Z,97.90
2019-04-20T03:57:29.320Z,97.20
2019-04-20T04:03:37.954Z,97.50
2019-04-20T04:06:11.737Z,97.10
2019-04-20T04:08:55.044Z,97.20
2019-04-20T04:11:38.246Z,97.80
2019-04-20T04:14:05.008Z,97.90
2019-04-20T04:16:51.275Z,97.50
2019-04-20T04:19:33.256Z,99.00
2019-04-20T04:22:21.187Z,98.10
2019-04-20T04:25:09.457Z,98.70
2019-04-20T04:27:53.011Z,98.50
2019-04-20T04:30:35.479Z,98.90
2019-04-20T04:33:48.996Z,98.50
2019-04-20T04:36:02.036Z,99.90
2019-04-20T04:38:37.414Z,99.90
2019-04-20T04:41:36.797Z,99.90
2019-04-20T04:44:10.951Z,99.90
2019-04-20T04:46:53.489Z,99.90
2019-04-20T04:49:39.286Z,99.90
2019-04-20T04:52:33.087Z,99.90
2019-04-20T04:55:26.029Z,99.90
2019-04-20T04:58:04.398Z,99.90
2019-04-20T05:01:01.292Z,99.90
2019-04-20T05:04:11.154Z,99.90
2019-04-20T05:06:48.085Z,99.90
2019-04-20T05:09:23.782Z,99.90
2019-04-20T05:12:17.460Z,99.90
2019-04-20T05:15:06.127Z,99.90
2019-04-20T05:17:45.259Z,99.90
2019-04-20T05:23:45.790Z,99.90
2019-04-20T05:27:01.521Z,99.90
2019-04-20T05:29:34.970Z,99.90
2019-04-20T05:32:33.743Z,99.90
2019-04-20T05:35:30.979Z,99.90
2019-04-20T05:38:28.226Z,99.90
2019-04-20T05:41:11.725Z,99.90
2019-04-20T05:43:56.549Z,99.90
2019-04-20T05:46:49.222Z,99.90
2019-04-20T05:49:35.573Z,99.90
2019-04-20T05:52:52.386Z,99.90
2019-04-20T05:55:22.427Z,99.90
2019-04-20T05:58:13.956Z,99.90
2019-04-20T06:04:03.006Z,99.90
2019-04-20T06:07:04.029Z,99.90
2019-04-20T06:09:46.387Z,99.90
2019-04-20T06:12:36.345Z,99.70
2019-04-20T06:15:20.040Z,99.80
2019-04-20T06:18:07.042Z,99.20
2019-04-20T06:20:53.492Z,99.30
2019-04-20T06:23:53.189Z,99.10
2019-04-20T06:29:05.130Z,98.40
2019-04-20T06:31:55.998Z,97.60
2019-04-20T06:34:47.868Z,97.30
2019-04-20T06:37:16.141Z,96.90
2019-04-20T06:42:42.393Z,95.20
2019-04-20T06:45:36.351Z,95.00
2019-04-20T06:48:30.831Z,93.50
2019-04-20T06:54:44.811Z,92.90
2019-04-20T06:57:31.148Z,86.20
2019-04-20T07:00:39.089Z,72.30
2019-04-20T07:03:18.414Z,63.80
2019-04-20T07:06:26.325Z,56.30
2019-04-20T07:11:42.570Z,51.80
2019-04-20T07:14:23.412Z,50.80
2019-04-20T07:17:42.041Z,48.80
2019-04-20T07:20:46.070Z,47.80
2019-04-20T07:26:02.305Z,46.20
2019-04-20T07:28:49.977Z,46.50
2019-04-20T07:31:27.763Z,46.90
2019-04-20T07:34:10.307Z,45.50
2019-04-20T07:37:20.358Z,44.20
2019-04-20T07:39:32.775Z,44.30
2019-04-20T07:42:25.449Z,41.90
2019-04-20T07:45:11.227Z,42.10
2019-04-20T07:47:46.295Z,40.90
2019-04-20T07:50:21.781Z,40.80
2019-04-20T07:53:04.297Z,41.10
2019-04-20T07:55:55.154Z,40.20
2019-04-20T07:58:29.529Z,38.80
2019-04-20T08:01:34.178Z,37.70
2019-04-20T08:07:02.126Z,39.20
2019-04-20T08:09:49.765Z,39.10
2019-04-20T08:12:58.632Z,38.50
2019-04-20T08:15:44.513Z,39.80
2019-04-20T08:18:21.375Z,40.80
2019-04-20T08:21:00.430Z,40.20
2019-04-20T08:23:38.648Z,41.60
2019-04-20T08:26:11.285Z,42.70
2019-04-20T08:28:59.728Z,41.70
2019-04-20T08:32:14.144Z,42.10
2019-04-20T08:35:02.258Z,44.00
2019-04-20T08:37:40.140Z,41.90
2019-04-20T08:40:25.389Z,43.00
2019-04-20T08:43:20.136Z,41.60
2019-04-20T08:45:52.753Z,40.80
2019-04-20T08:48:34.823Z,42.80
2019-04-20T08:51:14.560Z,39.60
2019-04-20T08:53:51.749Z,41.10
2019-04-20T08:56:29.075Z,41.90
2019-04-20T08:59:01.862Z,41.90
2019-04-20T09:01:44.491Z,40.90
2019-04-20T09:04:37.435Z,41.30
2019-04-20T09:07:16.132Z,41.10
2019-04-20T09:10:21.865Z,42.50
2019-04-20T09:12:50.676Z,41.10
2019-04-20T09:18:16.974Z,40.10
2019-04-20T09:20:58.471Z,39.90
2019-04-20T09:23:45.079Z,40.10
2019-04-20T09:26:37.551Z,43.80
2019-04-20T09:29:12.708Z,40.80
2019-04-20T09:32:09.614Z,40.40
2019-04-20T09:34:57.462Z,39.30
2019-04-20T09:40:44.876Z,41.30
2019-04-20T09:43:30.410Z,38.90
2019-04-20T09:46:11.878Z,39.80
2019-04-20T09:48:57.920Z,39.20
2019-04-20T09:51:50.075Z,38.50
2019-04-20T09:54:37.021Z,37.80
2019-04-20T09:57:22.842Z,38.80
2019-04-20T10:00:04.230Z,39.40
2019-04-20T10:02:29.838Z,38.40
2019-04-20T10:05:09.410Z,40.20
2019-04-20T10:07:56.968Z,38.70
2019-04-20T10:10:38.877Z,38.60
2019-04-20T10:13:15.599Z,41.10
2019-04-20T10:15:57.727Z,38.40
2019-04-20T10:18:41.335Z,39.40
2019-04-20T10:21:20.321Z,39.40
2019-04-20T10:24:02.784Z,40.50
2019-04-20T10:26:44.844Z,37.60
2019-04-20T10:29:25.799Z,38.90
2019-04-20T10:32:10.153Z,40.80
2019-04-20T10:34:50.567Z,40.30
2019-04-20T10:37:35.526Z,38.90
2019-04-20T10:40:31.588Z,33.80
2019-04-20T10:43:01.075Z,35.20
2019-04-20T10:45:41.943Z,37.40
2019-04-20T10:48:23.523Z,36.40
2019-04-20T10:51:05.227Z,37.10
2019-04-20T10:53:46.463Z,35.80
2019-04-20T10:56:27.876Z,35.50
2019-04-20T10:59:09.701Z,38.60
2019-04-20T11:01:50.123Z,36.90
2019-04-20T11:04:30.971Z,33.00
2019-04-20T11:07:12.531Z,31.30
2019-04-20T11:10:05.355Z,31.80
2019-04-20T11:12:38.020Z,33.40
2019-04-20T11:15:18.696Z,32.90
2019-04-20T11:17:59.625Z,32.90
2019-04-20T11:20:41.394Z,35.90
2019-04-20T11:23:22.616Z,33.50
2019-04-20T11:26:04.319Z,33.70
2019-04-20T11:28:46.232Z,32.80
2019-04-20T11:31:37.309Z,31.90
2019-04-20T11:34:10.220Z,33.50
2019-04-20T11:36:51.475Z,34.60
2019-04-20T11:39:32.918Z,34.50
2019-04-20T11:42:14.047Z,35.50
2019-04-20T11:44:54.945Z,33.90
2019-04-20T11:47:36.122Z,34.40
2019-04-20T11:50:17.849Z,34.90
2019-04-20T11:52:59.328Z,34.40
2019-04-20T11:55:40.428Z,34.90
2019-04-20T11:58:21.776Z,35.90
2019-04-20T12:04:17.186Z,34.40
2019-04-20T12:06:43.751Z,36.50
2019-04-20T12:09:25.911Z,35.40
2019-04-20T12:12:17.861Z,35.80
2019-04-20T12:14:50.554Z,33.50
2019-04-20T12:17:31.637Z,35.30
2019-04-20T12:20:12.479Z,33.90
2019-04-20T12:22:54.605Z,34.80
2019-04-20T12:25:36.747Z,35.80
2019-04-20T12:28:19.756Z,36.00
2019-04-20T12:31:09.844Z,35.10
2019-04-20T12:33:44.330Z,34.40
2019-04-20T12:39:13.111Z,34.00
2019-04-20T12:42:04.507Z,34.40
2019-04-20T12:44:51.387Z,33.20
2019-04-20T12:47:39.639Z,33.30
2019-04-20T12:50:29.828Z,33.80
2019-04-20T12:53:20.330Z,33.90
2019-04-20T12:56:08.766Z,32.40
2019-04-20T12:58:57.789Z,32.10
2019-04-20T13:01:47.128Z,32.00
2019-04-20T13:04:37.351Z,34.10
2019-04-20T13:07:26.894Z,32.00
2019-04-20T13:10:17.823Z,32.20
2019-04-20T13:19:03.515Z,34.20
2019-04-20T13:21:45.134Z,32.40
2019-04-20T13:24:27.098Z,32.00
2019-04-20T13:27:07.794Z,33.90
2019-04-20T13:29:52.235Z,32.00
2019-04-20T13:32:34.005Z,31.10
2019-04-20T13:35:14.552Z,31.30
2019-04-20T13:37:56.197Z,32.60
2019-04-20T13:40:37.695Z,32.70
2019-04-20T13:43:19.717Z,32.60
2019-04-20T13:46:00.790Z,32.00
2019-04-20T13:48:30.998Z,31.60
2019-04-20T13:51:19.359Z,31.60
2019-04-20T14:01:51.224Z,32.00
2019-04-20T14:04:44.575Z,32.00
2019-04-20T14:07:26.961Z,30.90
2019-04-20T14:10:09.087Z,30.80
2019-04-20T14:12:58.710Z,30.80
2019-04-20T14:15:33.454Z,30.60
2019-04-20T14:18:02.447Z,30.00
2019-04-20T14:20:52.071Z,29.20
2019-04-20T14:23:41.138Z,29.30
2019-04-20T14:26:10.996Z,29.60
2019-04-20T14:28:58.966Z,29.60
2019-04-20T14:31:48.027Z,29.70
2019-04-20T14:34:36.700Z,30.70
2019-04-20T14:37:24.757Z,29.70
2019-04-20T14:40:12.795Z,30.00
2019-04-20T14:43:01.692Z,30.30
2019-04-20T14:45:50.590Z,30.30
2019-04-20T14:48:38.978Z,28.90
2019-04-20T14:51:27.828Z,29.80
2019-04-20T14:54:17.136Z,30.00
2019-04-20T14:57:07.741Z,30.40
2019-04-20T15:12:04.544Z,29.40
2019-04-20T15:14:54.598Z,27.80
2019-04-20T15:17:41.662Z,29.00
2019-04-20T15:23:23.522Z,30.00
2019-04-20T15:26:04.953Z,29.40
2019-04-20T15:28:46.269Z,30.70
2019-04-20T15:31:30.344Z,30.40
2019-04-20T15:34:11.232Z,30.10
2019-04-20T15:36:52.245Z,29.50
2019-04-20T15:39:32.959Z,29.90
2019-04-20T15:42:14.971Z,30.00
2019-04-20T15:44:55.670Z,29.80
2019-04-20T15:47:36.467Z,31.20
2019-04-20T15:50:18.071Z,29.80
2019-04-20T15:53:00.812Z,30.90
2019-04-20T15:55:43.845Z,31.10
2019-04-20T15:58:26.191Z,29.50
2019-04-20T16:01:08.284Z,30.00
2019-04-20T16:03:55.279Z,30.00
2019-04-20T16:06:36.994Z,30.00
2019-04-20T16:09:17.909Z,30.50
2019-04-20T16:11:59.118Z,30.50
2019-04-20T16:14:41.651Z,31.10
2019-04-20T16:17:25.199Z,30.00
2019-04-20T16:20:09.111Z,30.60
2019-04-20T16:22:48.878Z,30.80
2019-04-20T16:25:35.389Z,30.90
2019-04-20T16:28:17.357Z,31.70
2019-04-20T16:30:59.374Z,30.50
2019-04-20T16:33:40.035Z,30.80
2019-04-20T16:36:20.896Z,31.00
2019-04-20T16:39:01.693Z,30.80
2019-04-20T16:41:42.470Z,31.20
2019-04-20T16:44:23.202Z,31.30
2019-04-20T16:47:04.111Z,32.00
2019-04-20T16:49:46.618Z,31.80
2019-04-20T16:52:28.828Z,32.00
2019-04-20T16:55:11.292Z,32.80
2019-04-20T16:57:53.044Z,33.80
2019-04-20T17:00:33.612Z,34.90
2019-04-20T17:03:15.307Z,36.00
2019-04-20T17:05:56.399Z,38.60
2019-04-20T17:08:40.804Z,37.90
2019-04-20T17:11:19.418Z,38.80
2019-04-20T17:16:59.931Z,38.10
2019-04-20T17:19:41.539Z,38.70
2019-04-20T17:22:23.320Z,40.00
2019-04-20T17:24:53.606Z,39.50
2019-04-20T17:28:01.058Z,38.30
2019-04-20T17:31:09.164Z,38.10
2019-04-20T17:34:11.436Z,37.80
2019-04-20T17:36:50.679Z,37.80
2019-04-20T17:40:03.803Z,38.20
2019-04-20T17:42:40.113Z,38.20
2019-04-20T17:45:33.409Z,41.70
2019-04-20T17:48:25.546Z,40.70
2019-04-20T17:51:22.443Z,40.70
2019-04-20T17:54:09.310Z,39.70
2019-04-20T17:56:58.245Z,41.10
2019-04-20T18:05:59.684Z,43.50
2019-04-20T18:08:49.452Z,45.60
2019-04-20T18:11:25.550Z,46.50
2019-04-20T18:14:32.786Z,46.60
2019-04-20T18:17:13.889Z,47.90
2019-04-20T18:19:49.131Z,47.40
2019-04-20T18:22:30.004Z,47.30
2019-04-20T18:25:32.801Z,47.60
2019-04-20T18:28:05.649Z,47.50
2019-04-20T18:33:34.943Z,47.50
2019-04-20T18:36:23.674Z,48.60
2019-04-20T18:39:00.637Z,48.70
2019-04-20T18:41:46.549Z,50.80
2019-04-20T18:44:27.713Z,50.60
2019-04-20T18:47:23.657Z,50.20
2019-04-20T18:49:57.227Z,52.40
2019-04-20T18:52:31.666Z,50.40
2019-04-20T18:55:17.588Z,51.40
2019-04-20T18:57:55.244Z,52.20
2019-04-20T19:00:42.186Z,52.90
2019-04-20T19:03:26.954Z,52.80
2019-04-20T19:06:02.185Z,54.10
2019-04-20T19:08:48.009Z,53.90
2019-04-20T19:11:27.040Z,55.00
2019-04-20T19:14:35.581Z,54.00
2019-04-20T19:17:46.683Z,57.50
2019-04-20T19:23:25.313Z,58.90
2019-04-20T19:26:11.985Z,58.90
2019-04-20T19:28:53.933Z,59.90
2019-04-20T19:31:46.095Z,58.20
2019-04-20T19:34:29.618Z,57.00
2019-04-20T19:37:10.348Z,57.50
2019-04-20T19:39:53.274Z,58.20
2019-04-20T19:42:37.127Z,59.00
2019-04-20T19:45:31.741Z,61.50
2019-04-20T19:48:05.723Z,61.20
2019-04-20T19:50:57.666Z,63.40
2019-04-20T19:53:33.523Z,65.60
2019-04-20T19:56:07.716Z,64.90
2019-04-20T19:58:54.269Z,66.30
2019-04-20T20:01:22.045Z,73.00
2019-04-20T20:04:06.420Z,74.60
2019-04-20T20:06:51.916Z,69.40
2019-04-20T20:09:32.437Z,61.30
2019-04-20T20:12:14.722Z,62.40
2019-04-20T20:14:55.235Z,61.00
2019-04-20T20:17:54.458Z,60.70
2019-04-20T20:20:41.243Z,59.00
2019-04-20T20:23:03.329Z,59.50
2019-04-20T20:25:48.169Z,63.60
2019-04-20T20:28:38.230Z,65.60
2019-04-20T20:31:21.394Z,62.30
2019-04-20T20:34:06.039Z,64.70
2019-04-20T20:36:44.006Z,62.60
2019-04-20T20:39:24.164Z,62.50
2019-04-20T20:42:14.305Z,61.70
2019-04-20T20:44:52.825Z,61.90
2019-04-20T20:48:01.981Z,59.50
2019-04-20T20:50:33.808Z,59.40
2019-04-20T20:53:06.392Z,59.00
2019-04-20T20:55:42.089Z,59.70
2019-04-20T20:58:25.186Z,66.40
2019-04-20T21:01:09.200Z,71.90
2019-04-20T21:03:44.180Z,72.10
2019-04-20T21:06:24.409Z,70.70
2019-04-20T21:09:05.383Z,69.90
2019-04-20T21:11:46.366Z,67.00
2019-04-20T21:14:31.754Z,68.40
2019-04-20T21:17:16.206Z,67.00
2019-04-20T21:20:08.908Z,66.60
2019-04-20T21:22:57.539Z,66.10
2019-04-20T21:25:27.712Z,67.10
2019-04-20T21:28:04.873Z,67.20
2019-04-20T21:30:48.388Z,67.70
2019-04-20T21:33:32.210Z,69.70
2019-04-20T21:36:14.530Z,67.50
2019-04-20T21:38:54.291Z,67.00
2019-04-20T21:41:35.704Z,67.50
2019-04-20T21:44:24.408Z,68.20
2019-04-20T21:47:00.329Z,68.70
2019-04-20T21:49:54.097Z,72.20
2019-04-20T21:52:35.287Z,73.50
2019-04-20T21:55:08.067Z,76.90
2019-04-20T21:57:53.256Z,75.20
2019-04-20T22:01:04.177Z,72.50
2019-04-20T22:03:34.325Z,70.80
2019-04-20T22:06:16.267Z,69.70
2019-04-20T22:09:01.087Z,69.10
2019-04-20T22:11:40.069Z,72.50
2019-04-20T22:14:24.268Z,70.80
2019-04-20T22:17:05.508Z,71.30
2019-04-20T22:20:01.521Z,70.80
2019-04-20T22:22:45.490Z,71.10
2019-04-20T22:25:28.631Z,71.40
2019-04-20T22:27:56.977Z,71.00
2019-04-20T22:30:36.271Z,71.40
2019-04-20T22:36:20.351Z,71.30
2019-04-20T22:39:09.569Z,72.90
2019-04-20T22:42:02.415Z,71.30
2019-04-20T22:44:36.476Z,70.40
2019-04-20T22:47:23.087Z,71.20
2019-04-20T22:52:53.571Z,72.10
2019-04-20T22:55:47.811Z,71.00
2019-04-20T22:58:23.653Z,71.90
2019-04-20T23:00:56.131Z,72.50
2019-04-20T23:03:32.968Z,71.40
2019-04-20T23:06:14.570Z,72.00
2019-04-20T23:08:59.356Z,72.20
2019-04-20T23:11:39.110Z,71.80
2019-04-20T23:14:22.375Z,75.10
2019-04-20T23:17:04.256Z,74.10
2019-04-20T23:19:49.441Z,73.00
2019-04-20T23:22:36.974Z,73.20
2019-04-20T23:25:11.300Z,74.50
2019-04-20T23:28:00.304Z,73.70
2019-04-20T23:30:39.391Z,74.30
2019-04-20T23:33:18.069Z,74.50
2019-04-20T23:36:02.416Z,74.70
2019-04-20T23:38:44.198Z,75.90
2019-04-20T23:41:25.857Z,75.10
2019-04-20T23:47:25.528Z,73.90
2019-04-20T23:50:30.659Z,74.90
2019-04-20T23:53:10.410Z,74.30
2019-04-20T23:55:36.006Z,76.60
2019-04-20T23:58:18.185Z,75.10
